Accueil
METAR-TAF:

METAR-TAF

Aéroports :

Aéroport international de Pohnpei

Ponape, Micronésie

latitude: 06-59N, longitude: 158-12E, altitude: 2 m

Observation

Le bulletin a été fait il y a 6 heures et 33 minutes, à 06:55 UTC
Vent 3 kt de sud
Température 29°C
Humidité 79%
Pression 1006 hPa
Visibilité: 24.1 km
Nuages fragmentés à une hauteur de 1800 ft, Cumulus congestus.
Nuages fragmentés à une hauteur de 13000 ft
Ciel couvert à une hauteur de 30000 ft

METAR: PTPN 230655Z 17003KT 15SM BKN018TCU BKN130 OVC300 29/25 A2972 RMK TCU ALQDS LAST

Heure: 00:28 (13:28 UTC)

Prévision

Le bulletin a été fait il y a 7 heures et 53 minutes, à 05:35 UTC
Prévision valable du 23 à 06 UTC au 24 à 06 UTC
Vent 6 kt de direction variable
Visibilité: 10 km
Nuages épars à une hauteur de 1800 ft
Nuages fragmentés à une hauteur de 13000 ft
averses à proximité

TAF: PTPN 230535Z 2306/2406 VRB06KT P6SM VCSH SCT018 BKN130

Observations et prévisions météorologiques de plus de 4000 aéroports (messages METAR et TAF).

Les stations disponibles sont représentées par des disques jaunes et rouges sur la carte.

Passer la souris dessus pour voir le nom de la station.

Cliquer dessus pour voir les observations et prévisions météorologiques.

Pour changer de carte: cliquez sur les boutons verts avec une croix noire pour zoomer, sur le bouton vert avec un tiret pour effectuer un zoom arrière, ou sur les flèches vertes pour les cartes adjacentes.


METAR-TAF: